Time;durP1;ratioP1;P1;durP2;ratioP2;P2;SDS_P1;SDS_P2;PMS_P1;PMS_P2;Temp;Humidity;BMP_temperature;BMP_pressure;BME280_temperature;BME280_humidity;BME280_pressure;Samples;Min_cycle;Max_cycle;Signal;HPM_P1;HPM_P2
2022/09/09 00:02:20;;;;;;;1.50;1.37;;;16.70;99.90;;;;;;5030935;28;20285;-48
2022/09/09 00:04:59;;;;;;;1.73;1.63;;;16.70;99.90;;;;;;5030939;28;20250;-48
2022/09/09 00:07:39;;;;;;;1.43;1.33;;;16.70;99.90;;;;;;5024870;28;20222;-49
2022/09/09 00:10:17;;;;;;;2.33;1.25;;;16.70;99.90;;;;;;5024542;28;20477;-49
2022/09/09 00:12:55;;;;;;;1.30;1.20;;;16.70;99.90;;;;;;5033458;28;20749;-49
2022/09/09 00:15:26;;;;;;;2.10;0.80;;;16.70;99.90;;;;;;5033680;28;20229;-49
2022/09/09 00:18:02;;;;;;;2.40;1.53;;;16.60;99.90;;;;;;5024447;28;20312;-49
2022/09/09 00:20:33;;;;;;;1.50;1.23;;;16.60;99.90;;;;;;5033627;28;20205;-49
2022/09/09 00:23:07;;;;;;;0.87;0.80;;;16.70;99.90;;;;;;5030741;28;20207;-48
2022/09/09 00:25:44;;;;;;;2.10;1.20;;;16.70;99.90;;;;;;5030420;28;20285;-49
2022/09/09 00:28:24;;;;;;;2.00;1.20;;;16.70;99.90;;;;;;5019473;28;20230;-48
2022/09/09 00:30:51;;;;;;;1.43;0.90;;;16.80;99.90;;;;;;5032064;28;20225;-49
2022/09/09 00:33:21;;;;;;;0.90;0.90;;;16.80;99.90;;;;;;5032845;28;20889;-48
2022/09/09 00:35:50;;;;;;;1.13;1.00;;;16.80;99.90;;;;;;5023115;28;20199;-48
2022/09/09 00:38:24;;;;;;;4.13;1.00;;;16.80;99.90;;;;;;5027210;28;20250;-49
2022/09/09 00:40:55;;;;;;;2.73;1.47;;;16.90;99.90;;;;;;5033390;28;20203;-49
2022/09/09 00:43:36;;;;;;;1.30;1.30;;;16.90;99.90;;;;;;5031880;28;20203;-48
2022/09/09 00:46:24;;;;;;;2.50;0.87;;;16.80;99.90;;;;;;5013406;28;20199;-48
2022/09/09 00:49:00;;;;;;;1.30;0.87;;;16.80;99.90;;;;;;5014838;28;20239;-49
2022/09/09 00:51:40;;;;;;;1.23;0.83;;;16.80;99.90;;;;;;5030265;28;20206;-49
2022/09/09 00:54:20;;;;;;;1.43;1.10;;;16.80;99.90;;;;;;5031879;28;20615;-49
2022/09/09 00:57:02;;;;;;;0.97;0.77;;;16.80;99.90;;;;;;5032808;28;20264;-50
2022/09/09 00:59:40;;;;;;;1.30;1.30;;;16.80;99.90;;;;;;5031300;28;20575;-49
2022/09/09 01:02:16;;;;;;;1.73;1.13;;;16.80;99.90;;;;;;5027514;28;20199;-49
2022/09/09 01:04:44;;;;;;;1.80;1.00;;;16.80;99.90;;;;;;5029962;28;20229;-49
2022/09/09 01:07:18;;;;;;;1.80;1.17;;;16.70;99.90;;;;;;5027150;28;20591;-49
2022/09/09 01:09:55;;;;;;;0.77;0.77;;;16.70;99.90;;;;;;5030554;28;20233;-48
2022/09/09 01:12:29;;;;;;;1.17;0.80;;;16.70;99.90;;;;;;5027387;28;20584;-49
2022/09/09 01:15:04;;;;;;;1.70;1.10;;;16.70;99.90;;;;;;5029134;28;20219;-49
2022/09/09 01:17:35;;;;;;;1.90;0.80;;;16.70;99.90;;;;;;5027139;28;20226;-48
2022/09/09 01:20:13;;;;;;;3.87;1.40;;;16.60;99.90;;;;;;5032349;28;20676;-49
2022/09/09 01:22:51;;;;;;;1.73;0.83;;;16.70;99.90;;;;;;5030347;28;20226;-50
2022/09/09 01:25:32;;;;;;;2.17;0.97;;;16.60;99.90;;;;;;5026149;28;20718;-49
2022/09/09 01:28:04;;;;;;;1.13;1.00;;;16.60;99.90;;;;;;5024335;28;20234;-48
2022/09/09 01:30:33;;;;;;;1.30;1.20;;;16.70;99.90;;;;;;5030903;28;20683;-49
2022/09/09 01:33:02;;;;;;;1.40;1.40;;;16.70;99.90;;;;;;5029783;28;20245;-48
2022/09/09 01:35:38;;;;;;;1.03;1.03;;;16.70;99.90;;;;;;5032292;28;20199;-50
2022/09/09 01:38:05;;;;;;;1.40;1.30;;;16.60;99.90;;;;;;5029431;28;20218;-49
2022/09/09 01:40:33;;;;;;;1.13;1.00;;;16.50;99.90;;;;;;5029206;28;20206;-49
2022/09/09 01:43:01;;;;;;;1.17;1.17;;;16.50;99.90;;;;;;5030910;28;20248;-48
2022/09/09 01:45:29;;;;;;;1.53;0.83;;;16.40;99.90;;;;;;5024168;28;20223;-49
2022/09/09 01:47:56;;;;;;;2.40;1.20;;;16.40;99.90;;;;;;5029773;28;20269;-49
2022/09/09 01:50:23;;;;;;;1.80;1.17;;;16.30;99.90;;;;;;5021683;28;20206;-49
2022/09/09 01:52:54;;;;;;;1.53;1.43;;;16.30;99.90;;;;;;5030420;28;20656;-49
2022/09/09 01:55:29;;;;;;;1.10;1.00;;;16.30;99.90;;;;;;5030404;28;20684;-49
2022/09/09 01:58:10;;;;;;;1.30;1.30;;;16.30;99.90;;;;;;5031859;28;20217;-48
2022/09/09 02:00:43;;;;;;;3.00;1.30;;;16.30;99.90;;;;;;5031959;28;20248;-49
2022/09/09 02:03:22;;;;;;;2.20;1.63;;;16.20;99.90;;;;;;5030289;28;20268;-49
2022/09/09 02:05:56;;;;;;;4.33;1.63;;;16.20;99.90;;;;;;5029099;28;20230;-49
2022/09/09 02:08:29;;;;;;;2.77;1.30;;;16.20;99.90;;;;;;5031529;28;20774;-49
2022/09/09 02:11:02;;;;;;;1.23;1.13;;;16.20;99.90;;;;;;5031711;28;20668;-48
2022/09/09 02:13:35;;;;;;;1.43;1.30;;;16.20;99.90;;;;;;5023347;28;20234;-49
2022/09/09 02:16:06;;;;;;;1.40;1.40;;;16.20;99.90;;;;;;5020856;28;20249;-49
2022/09/09 02:18:39;;;;;;;0.97;0.97;;;16.20;99.90;;;;;;5026026;28;20294;-49
2022/09/09 02:21:07;;;;;;;2.30;1.83;;;16.20;99.90;;;;;;5019403;28;20203;-49
2022/09/09 02:23:36;;;;;;;2.27;2.13;;;16.20;99.90;;;;;;5026968;28;20233;-49
2022/09/09 02:26:04;;;;;;;3.10;2.83;;;16.10;99.90;;;;;;5023581;28;20222;-49
2022/09/09 02:28:35;;;;;;;8.47;2.77;;;16.10;99.90;;;;;;5030719;28;20660;-53
2022/09/09 02:31:02;;;;;;;7.37;4.37;;;16.10;99.90;;;;;;5025371;28;20210;-49
2022/09/09 02:33:37;;;;;;;3.53;3.17;;;16.20;99.90;;;;;;5023084;28;20281;-49
2022/09/09 02:36:08;;;;;;;7.23;2.20;;;16.20;99.90;;;;;;5023599;28;20194;-49
2022/09/09 02:38:41;;;;;;;1.77;1.20;;;16.20;99.90;;;;;;5021831;28;20257;-48
2022/09/09 02:41:08;;;;;;;1.53;1.23;;;16.20;99.90;;;;;;5019263;28;20199;-49
2022/09/09 02:43:37;;;;;;;1.67;1.57;;;16.20;99.90;;;;;;5026279;28;20268;-49
2022/09/09 02:46:16;;;;;;;1.63;1.00;;;16.20;99.90;;;;;;5030003;28;20268;-49
2022/09/09 02:48:54;;;;;;;1.20;1.20;;;16.10;99.90;;;;;;5021182;28;20716;-49
2022/09/09 02:51:28;;;;;;;1.43;0.90;;;16.10;99.90;;;;;;5027242;28;20211;-48
2022/09/09 02:54:04;;;;;;;1.23;0.83;;;16.10;99.90;;;;;;5030106;28;20769;-48
2022/09/09 02:56:33;;;;;;;1.50;1.40;;;16.00;99.90;;;;;;5035037;28;20276;-49
2022/09/09 02:59:04;;;;;;;0.93;0.93;;;16.00;99.90;;;;;;5035088;28;20211;-49
2022/09/09 03:01:31;;;;;;;1.10;1.10;;;16.00;99.90;;;;;;5030209;28;20202;-49
2022/09/09 03:03:58;;;;;;;1.10;1.00;;;15.90;99.90;;;;;;5032398;28;22259;-49
2022/09/09 03:06:27;;;;;;;2.30;2.10;;;15.90;99.90;;;;;;5034852;28;20215;-49
2022/09/09 03:08:54;;;;;;;2.47;1.60;;;15.90;99.90;;;;;;5034337;28;20199;-48
2022/09/09 03:11:21;;;;;;;3.27;2.20;;;15.90;99.90;;;;;;5026290;28;20203;-49
2022/09/09 03:13:48;;;;;;;1.60;1.47;;;15.90;99.90;;;;;;5034527;28;20252;-49
2022/09/09 03:16:17;;;;;;;1.77;1.50;;;15.90;99.90;;;;;;5028597;28;20199;-49
2022/09/09 03:18:44;;;;;;;4.07;1.60;;;15.90;99.90;;;;;;5035738;28;20696;-48
2022/09/09 03:21:11;;;;;;;2.83;1.40;;;15.80;99.90;;;;;;5033983;28;20209;-47
2022/09/09 03:23:39;;;;;;;1.87;1.77;;;15.90;99.90;;;;;;5034103;28;20198;-49
2022/09/09 03:26:06;;;;;;;2.10;1.97;;;15.90;99.90;;;;;;5028732;28;20220;-50
2022/09/09 03:28:33;;;;;;;2.27;2.07;;;15.80;99.90;;;;;;5030548;28;20249;-49
2022/09/09 03:31:01;;;;;;;4.07;2.37;;;15.80;99.90;;;;;;5033270;28;20211;-48
2022/09/09 03:33:29;;;;;;;5.23;2.60;;;15.90;99.90;;;;;;5033168;28;20668;-49
2022/09/09 03:35:57;;;;;;;2.33;2.00;;;15.90;99.90;;;;;;5034450;28;20262;-48
2022/09/09 03:38:24;;;;;;;1.47;1.37;;;15.90;99.90;;;;;;5028389;28;20257;-49
2022/09/09 03:40:55;;;;;;;5.80;1.20;;;16.00;99.90;;;;;;5034240;28;20198;-48
2022/09/09 03:43:22;;;;;;;8.67;1.30;;;16.10;99.90;;;;;;5026284;28;20576;-48
2022/09/09 03:45:49;;;;;;;2.60;1.50;;;16.10;99.90;;;;;;5039072;28;20695;-48
2022/09/09 03:48:20;;;;;;;2.50;1.40;;;16.10;99.90;;;;;;5032308;28;20252;-49
2022/09/09 03:50:49;;;;;;;1.47;1.40;;;16.10;99.90;;;;;;5031794;28;20198;-48
2022/09/09 03:53:21;;;;;;;1.33;1.33;;;16.10;99.90;;;;;;5033997;28;20198;-49
2022/09/09 03:55:51;;;;;;;2.20;1.40;;;16.10;99.90;;;;;;5032733;28;20203;-50
2022/09/09 03:58:21;;;;;;;1.47;1.40;;;16.20;99.90;;;;;;5032094;28;20229;-49
2022/09/09 04:00:55;;;;;;;1.73;1.63;;;16.20;99.90;;;;;;5032958;28;20198;-50
2022/09/09 04:03:24;;;;;;;1.80;1.47;;;16.10;99.90;;;;;;5033071;28;20249;-48
2022/09/09 04:05:53;;;;;;;2.50;1.37;;;16.10;99.90;;;;;;5033667;28;20224;-49
2022/09/09 04:08:21;;;;;;;1.90;1.83;;;16.10;99.90;;;;;;5025091;28;20222;-48
2022/09/09 04:10:49;;;;;;;2.13;1.93;;;16.10;99.90;;;;;;5022308;28;20210;-49
2022/09/09 04:13:20;;;;;;;1.67;1.57;;;16.10;99.90;;;;;;5032181;28;20234;-49
2022/09/09 04:15:53;;;;;;;1.93;1.83;;;16.10;99.90;;;;;;5033418;28;20939;-48
2022/09/09 04:18:20;;;;;;;2.00;1.90;;;16.10;99.90;;;;;;5031859;28;20771;-48
2022/09/09 04:20:48;;;;;;;2.47;1.70;;;16.10;99.90;;;;;;5033591;28;20203;-49
2022/09/09 04:23:21;;;;;;;2.30;1.00;;;16.10;99.90;;;;;;5031227;28;20587;-49
2022/09/09 04:25:50;;;;;;;1.60;1.50;;;16.10;99.90;;;;;;5033410;28;20218;-49
2022/09/09 04:28:21;;;;;;;3.07;1.70;;;16.10;99.90;;;;;;5022822;28;20273;-48
2022/09/09 04:30:48;;;;;;;1.63;1.30;;;16.10;99.90;;;;;;5027379;28;20222;-48
2022/09/09 04:33:19;;;;;;;1.83;1.73;;;16.10;99.90;;;;;;5032168;28;20202;-49
2022/09/09 04:35:47;;;;;;;2.00;1.67;;;16.10;99.90;;;;;;5033339;28;20191;-49
2022/09/09 04:38:19;;;;;;;5.40;1.57;;;16.20;99.90;;;;;;5028301;28;20311;-49
2022/09/09 04:40:47;;;;;;;2.73;1.30;;;16.30;99.90;;;;;;5032472;28;20306;-49
2022/09/09 04:43:15;;;;;;;1.27;1.07;;;16.30;99.90;;;;;;5032437;28;20252;-48
2022/09/09 04:45:42;;;;;;;1.17;0.90;;;16.30;99.90;;;;;;5021457;28;20222;-49
2022/09/09 04:48:10;;;;;;;1.43;0.93;;;16.30;99.90;;;;;;5026777;28;20282;-49
2022/09/09 04:50:37;;;;;;;3.07;1.43;;;16.30;99.90;;;;;;5023277;28;20299;-48
2022/09/09 04:53:05;;;;;;;1.90;1.10;;;16.30;99.90;;;;;;5027167;28;20761;-48
2022/09/09 04:55:35;;;;;;;1.70;0.90;;;16.30;99.90;;;;;;5033209;28;20742;-49
2022/09/09 04:58:04;;;;;;;1.27;1.10;;;16.40;99.90;;;;;;5017502;28;20309;-49
2022/09/09 05:00:32;;;;;;;1.73;0.97;;;16.50;99.90;;;;;;5031840;28;20676;-48
2022/09/09 05:02:59;;;;;;;0.80;0.80;;;16.50;99.90;;;;;;5026733;28;20660;-48
2022/09/09 05:05:27;;;;;;;1.17;0.80;;;16.60;99.90;;;;;;5032198;28;20253;-48
2022/09/09 05:07:54;;;;;;;1.47;1.00;;;16.60;99.90;;;;;;5022122;28;20253;-49
2022/09/09 05:10:22;;;;;;;3.67;1.50;;;16.70;99.90;;;;;;5027197;28;20683;-49
2022/09/09 05:12:55;;;;;;;1.03;1.03;;;16.70;99.90;;;;;;5029806;28;20216;-49
2022/09/09 05:15:23;;;;;;;1.03;1.03;;;16.60;99.90;;;;;;5025594;28;20831;-48
2022/09/09 05:17:52;;;;;;;2.30;1.03;;;16.70;99.90;;;;;;5025504;28;20225;-49
2022/09/09 05:20:19;;;;;;;1.43;1.00;;;16.70;99.90;;;;;;5025491;28;20199;-48
2022/09/09 05:22:46;;;;;;;1.00;0.87;;;16.70;99.90;;;;;;5026708;28;20213;-48
2022/09/09 05:25:13;;;;;;;1.03;0.60;;;16.60;99.90;;;;;;5027423;28;20250;-47
2022/09/09 05:27:40;;;;;;;3.40;0.73;;;16.60;99.90;;;;;;5031203;28;20280;-49
2022/09/09 05:30:10;;;;;;;2.83;0.80;;;16.60;99.90;;;;;;5033188;28;20249;-48
2022/09/09 05:32:37;;;;;;;0.47;0.47;;;16.50;99.90;;;;;;5031008;28;20210;-48
2022/09/09 05:35:05;;;;;;;0.80;0.80;;;16.50;99.90;;;;;;5028251;28;20199;-49
2022/09/09 05:37:33;;;;;;;1.90;1.17;;;16.60;99.90;;;;;;5029553;28;20214;-49
2022/09/09 05:40:00;;;;;;;2.80;0.60;;;16.60;99.90;;;;;;5031218;28;20276;-48
2022/09/09 05:42:32;;;;;;;2.00;1.00;;;16.50;99.90;;;;;;5028470;28;20294;-49
2022/09/09 05:44:59;;;;;;;0.50;0.30;;;16.50;99.90;;;;;;5026051;28;20256;-50
2022/09/09 05:47:28;;;;;;;2.20;0.70;;;16.60;99.90;;;;;;5028466;28;20234;-49
2022/09/09 05:49:56;;;;;;;1.53;1.03;;;16.60;99.90;;;;;;5030160;28;20195;-48
2022/09/09 05:52:23;;;;;;;1.43;0.80;;;16.60;99.90;;;;;;5030222;28;20676;-49
2022/09/09 05:54:50;;;;;;;4.50;0.60;;;16.60;99.90;;;;;;5028203;28;20664;-49
2022/09/09 05:57:19;;;;;;;6.60;0.80;;;16.60;99.90;;;;;;5030980;28;20715;-50
2022/09/09 05:59:46;;;;;;;0.60;0.50;;;16.70;99.90;;;;;;5031096;28;20198;-49
2022/09/09 06:02:14;;;;;;;2.67;0.90;;;16.80;99.90;;;;;;5035857;28;20751;-48
2022/09/09 06:04:42;;;;;;;1.60;0.53;;;16.90;99.90;;;;;;5027884;28;20225;-49
2022/09/09 06:07:09;;;;;;;1.27;0.90;;;16.80;99.90;;;;;;5027589;28;20688;-49
2022/09/09 06:09:36;;;;;;;0.63;0.63;;;16.90;99.90;;;;;;5021509;28;20202;-48
2022/09/09 06:12:03;;;;;;;1.00;0.60;;;16.90;99.90;;;;;;5029628;28;20198;-49
2022/09/09 06:14:32;;;;;;;1.50;0.67;;;17.00;99.90;;;;;;5030660;28;20619;-49
2022/09/09 06:16:59;;;;;;;0.63;0.63;;;17.00;99.90;;;;;;5023038;28;20224;-48
2022/09/09 06:19:26;;;;;;;0.70;0.50;;;17.10;99.90;;;;;;5027070;28;20272;-48
2022/09/09 06:21:55;;;;;;;1.67;0.53;;;17.10;99.90;;;;;;5031389;28;20261;-49
2022/09/09 06:24:22;;;;;;;1.43;0.73;;;17.20;99.90;;;;;;5030466;28;20638;-49
2022/09/09 06:26:49;;;;;;;2.17;0.70;;;17.20;99.90;;;;;;5035365;28;20233;-48
2022/09/09 06:29:16;;;;;;;1.60;0.50;;;17.20;99.90;;;;;;5035780;28;20252;-49
2022/09/09 06:31:43;;;;;;;2.20;0.87;;;17.30;99.90;;;;;;5035469;28;20206;-48
2022/09/09 06:34:10;;;;;;;2.20;0.87;;;17.40;99.90;;;;;;5034179;28;20214;-49
2022/09/09 06:36:39;;;;;;;0.97;0.87;;;17.40;99.90;;;;;;5035329;28;20276;-48
2022/09/09 06:39:10;;;;;;;0.60;0.60;;;17.30;99.90;;;;;;5029581;28;20198;-49
2022/09/09 06:41:39;;;;;;;0.50;0.50;;;17.40;99.90;;;;;;5034711;28;20202;-48
2022/09/09 06:44:05;;;;;;;1.90;0.60;;;17.30;99.90;;;;;;5034907;28;20206;-48
2022/09/09 06:46:33;;;;;;;0.50;0.50;;;17.20;99.90;;;;;;5035575;28;20226;-48
2022/09/09 06:49:01;;;;;;;4.57;0.53;;;17.20;99.90;;;;;;5026201;28;20206;-49
2022/09/09 06:51:29;;;;;;;1.80;0.60;;;17.20;99.90;;;;;;5032122;28;20341;-48
2022/09/09 06:53:58;;;;;;;1.80;0.60;;;17.10;99.90;;;;;;5030665;28;20623;-49
2022/09/09 06:56:28;;;;;;;3.10;0.63;;;17.10;99.90;;;;;;5029147;28;20298;-48
2022/09/09 06:58:58;;;;;;;2.13;0.53;;;17.10;99.90;;;;;;5023826;28;20761;-48
2022/09/09 07:01:26;;;;;;;2.50;1.13;;;17.10;99.90;;;;;;5034045;28;20222;-49
2022/09/09 07:03:55;;;;;;;1.33;0.53;;;17.10;99.90;;;;;;5033681;28;20241;-49
2022/09/09 07:06:25;;;;;;;2.30;0.70;;;17.10;99.90;;;;;;5027947;28;20226;-49
2022/09/09 07:08:53;;;;;;;4.63;1.03;;;17.10;99.90;;;;;;5031255;28;20206;-50
2022/09/09 07:11:21;;;;;;;2.27;0.90;;;17.10;99.90;;;;;;5023049;28;20676;-49
2022/09/09 07:13:50;;;;;;;1.13;0.80;;;17.10;99.90;;;;;;5029302;28;20206;-48
2022/09/09 07:16:20;;;;;;;1.30;0.77;;;17.20;99.90;;;;;;5024758;28;20289;-48
2022/09/09 07:18:47;;;;;;;0.87;0.73;;;17.20;99.90;;;;;;5031655;28;20209;-48
2022/09/09 07:21:15;;;;;;;1.60;0.73;;;17.20;99.90;;;;;;5030798;28;20256;-48
2022/09/09 07:23:43;;;;;;;2.10;0.70;;;17.20;99.90;;;;;;5029045;28;20202;-48
2022/09/09 07:26:11;;;;;;;1.23;0.63;;;17.20;99.90;;;;;;5028858;28;20223;-49
2022/09/09 07:28:38;;;;;;;0.70;0.70;;;17.30;99.90;;;;;;5030727;28;20281;-49
2022/09/09 07:31:08;;;;;;;0.87;0.77;;;17.30;99.90;;;;;;5030904;28;20203;-49
2022/09/09 07:33:36;;;;;;;2.27;1.10;;;17.40;99.90;;;;;;5028675;28;20252;-48
2022/09/09 07:36:05;;;;;;;0.67;0.67;;;17.40;99.90;;;;;;5031293;28;20272;-47
2022/09/09 07:38:32;;;;;;;0.40;0.40;;;17.50;99.90;;;;;;5029934;28;20206;-48
2022/09/09 07:41:06;;;;;;;2.87;0.83;;;17.50;99.90;;;;;;5028988;28;20367;-49
2022/09/09 07:43:33;;;;;;;1.90;0.60;;;17.60;99.90;;;;;;5024787;28;20214;-48
2022/09/09 07:46:02;;;;;;;1.80;0.90;;;17.60;99.90;;;;;;5027875;28;20244;-48
2022/09/09 07:48:30;;;;;;;1.03;0.87;;;17.70;99.90;;;;;;5027125;28;20205;-49
2022/09/09 07:51:06;;;;;;;1.80;0.70;;;17.70;99.90;;;;;;5033537;28;20202;-49
2022/09/09 07:53:34;;;;;;;1.03;0.60;;;17.60;99.90;;;;;;5033974;28;20206;-48
2022/09/09 07:56:06;;;;;;;3.23;0.70;;;17.60;99.90;;;;;;5029238;28;20203;-49
2022/09/09 07:58:33;;;;;;;0.60;0.60;;;17.70;99.90;;;;;;5037125;28;20198;-50
2022/09/09 08:01:00;;;;;;;0.70;0.50;;;17.60;99.90;;;;;;5023811;28;20260;-48
2022/09/09 08:03:27;;;;;;;1.53;0.80;;;17.70;99.90;;;;;;5033026;28;20742;-49
2022/09/09 08:06:02;;;;;;;1.60;0.60;;;17.70;99.90;;;;;;5034087;28;20217;-49
2022/09/09 08:08:29;;;;;;;1.87;1.00;;;17.70;99.90;;;;;;5033261;28;20267;-49
2022/09/09 08:11:03;;;;;;;2.47;0.90;;;17.60;99.90;;;;;;5021752;28;20294;-48
2022/09/09 08:13:31;;;;;;;0.83;0.83;;;17.60;99.90;;;;;;5031718;28;20221;-49
2022/09/09 08:16:05;;;;;;;1.30;0.87;;;17.50;99.90;;;;;;5030056;28;20230;-48
2022/09/09 08:18:32;;;;;;;2.97;0.80;;;17.50;99.90;;;;;;5029937;28;20226;-48
2022/09/09 08:21:06;;;;;;;0.77;0.77;;;17.40;99.90;;;;;;5033777;28;20206;-48
2022/09/09 08:23:33;;;;;;;1.90;1.20;;;17.50;99.90;;;;;;5033441;28;20206;-49
2022/09/09 08:26:05;;;;;;;3.23;0.90;;;17.60;99.90;;;;;;5033446;28;20273;-48
2022/09/09 08:28:32;;;;;;;1.83;0.90;;;17.60;99.90;;;;;;5031937;28;20234;-48
2022/09/09 08:31:10;;;;;;;1.23;0.90;;;17.50;99.90;;;;;;5033318;28;20222;-49
2022/09/09 08:33:38;;;;;;;2.10;0.93;;;17.50;99.90;;;;;;5025313;28;20203;-49
2022/09/09 08:36:08;;;;;;;3.07;1.07;;;17.50;99.90;;;;;;5033253;28;20617;-49
2022/09/09 08:38:37;;;;;;;1.87;0.80;;;17.50;99.90;;;;;;5033581;28;20293;-49
2022/09/09 08:41:39;;;;;;;0.50;0.50;;;17.40;99.90;;;;;;5031231;28;20198;-49
2022/09/09 08:44:11;;;;;;;4.07;0.93;;;17.30;99.90;;;;;;5027531;28;20228;-49
2022/09/09 08:46:48;;;;;;;2.67;1.07;;;17.30;99.90;;;;;;5033123;28;20916;-49
2022/09/09 08:49:36;;;;;;;1.37;0.70;;;17.30;99.90;;;;;;5030603;28;20237;-49
2022/09/09 08:52:10;;;;;;;2.83;0.90;;;17.30;99.90;;;;;;5028546;28;20207;-48
2022/09/09 08:54:37;;;;;;;2.73;0.73;;;17.20;99.90;;;;;;5029685;28;20199;-48
2022/09/09 08:57:12;;;;;;;0.70;0.70;;;17.10;99.90;;;;;;5033028;28;20727;-49
2022/09/09 08:59:40;;;;;;;1.50;0.70;;;17.20;99.90;;;;;;5033109;28;20206;-49
2022/09/09 09:02:16;;;;;;;0.77;0.73;;;17.20;99.90;;;;;;5030488;28;20441;-49
2022/09/09 09:05:06;;;;;;;2.33;0.90;;;17.10;99.90;;;;;;5032655;28;20622;-48
2022/09/09 09:07:49;;;;;;;2.30;1.07;;;17.10;99.90;;;;;;5029541;28;20611;-48
2022/09/09 09:10:34;;;;;;;2.40;1.10;;;17.00;99.90;;;;;;5024425;28;20197;-49
2022/09/09 09:13:01;;;;;;;1.43;1.03;;;16.90;99.90;;;;;;5033032;28;20206;-48
2022/09/09 09:15:37;;;;;;;1.33;0.73;;;16.80;99.90;;;;;;5032680;28;20202;-49
2022/09/09 09:18:04;;;;;;;1.43;0.80;;;16.70;99.90;;;;;;5030231;28;20245;-48
2022/09/09 09:20:41;;;;;;;0.98;0.80;;;16.70;99.90;;;;;;5028794;28;20796;-48
2022/09/09 09:23:23;;;;;;;3.30;1.50;;;16.80;99.90;;;;;;5029955;28;20215;-47
2022/09/09 09:25:53;;;;;;;1.07;0.80;;;16.70;99.90;;;;;;5027120;28;20289;-48
2022/09/09 09:28:26;;;;;;;2.43;1.30;;;16.60;99.90;;;;;;5028434;28;20284;-48
2022/09/09 09:30:57;;;;;;;2.47;0.77;;;16.50;99.90;;;;;;5027969;28;20215;-49
2022/09/09 09:33:30;;;;;;;3.60;1.50;;;16.50;99.90;;;;;;5031408;28;20668;-48
2022/09/09 09:35:59;;;;;;;1.80;1.17;;;16.50;99.90;;;;;;5030936;28;20226;-49
2022/09/09 09:38:30;;;;;;;2.53;0.90;;;16.50;99.90;;;;;;5031180;28;20636;-49
2022/09/09 09:41:00;;;;;;;2.07;0.80;;;16.40;99.90;;;;;;5030770;28;20657;-48
2022/09/09 09:43:29;;;;;;;1.90;0.70;;;16.40;99.90;;;;;;5023546;28;20202;-50
2022/09/09 09:45:58;;;;;;;0.97;0.70;;;16.50;99.90;;;;;;5026671;28;20211;-48
2022/09/09 09:48:26;;;;;;;2.10;0.57;;;16.50;99.90;;;;;;5026290;28;20232;-48
2022/09/09 09:50:55;;;;;;;0.87;0.60;;;16.60;99.90;;;;;;5031757;28;20268;-48
2022/09/09 09:53:25;;;;;;;2.00;1.50;;;16.60;99.90;;;;;;5026080;28;20206;-49
2022/09/09 09:56:28;;;;;;;0.60;0.60;;;16.60;99.90;;;;;;5021608;28;20199;-49
2022/09/09 09:58:56;;;;;;;0.63;0.63;;;16.60;99.90;;;;;;5023856;28;20616;-49
2022/09/09 10:01:27;;;;;;;1.00;0.60;;;16.70;99.90;;;;;;5027436;28;20256;-48
2022/09/09 10:03:58;;;;;;;1.57;0.57;;;16.80;99.90;;;;;;5023423;28;20289;-48
2022/09/09 10:06:32;;;;;;;1.80;1.33;;;16.80;99.90;;;;;;5027798;28;20226;-48
2022/09/09 10:09:01;;;;;;;2.40;2.10;;;16.90;99.90;;;;;;5031313;28;20229;-50
2022/09/09 10:11:47;;;;;;;1.67;0.80;;;17.00;99.90;;;;;;5027564;28;20207;-49
2022/09/09 10:14:21;;;;;;;0.97;0.50;;;17.10;99.90;;;;;;5028178;28;20202;-49
2022/09/09 10:16:59;;;;;;;2.97;1.17;;;17.40;99.90;;;;;;5028008;28;20275;-49
2022/09/09 10:19:33;;;;;;;1.57;0.50;;;17.70;99.90;;;;;;5030511;28;20202;-49
2022/09/09 10:22:27;;;;;;;3.17;0.80;;;18.00;99.90;;;;;;5030408;28;20680;-48
2022/09/09 10:25:20;;;;;;;1.13;0.30;;;18.30;99.90;;;;;;5029299;28;20230;-48
2022/09/09 10:28:12;;;;;;;1.00;0.33;;;18.50;99.90;;;;;;5028447;28;20222;-48
2022/09/09 10:30:51;;;;;;;0.40;0.30;;;18.60;99.90;;;;;;5023656;28;20287;-49
2022/09/09 10:33:32;;;;;;;1.17;0.50;;;18.80;99.90;;;;;;5027656;28;20839;-49
2022/09/09 10:36:10;;;;;;;0.77;0.40;;;18.80;99.90;;;;;;5018343;28;20210;-48
2022/09/09 10:38:43;;;;;;;0.77;0.60;;;18.70;99.90;;;;;;5020508;28;20220;-49
2022/09/09 10:41:19;;;;;;;0.80;0.40;;;18.70;99.90;;;;;;5019369;28;20264;-49
2022/09/09 10:44:13;;;;;;;2.00;0.40;;;18.70;99.90;;;;;;5018355;28;20199;-48
2022/09/09 10:46:51;;;;;;;0.53;0.50;;;18.90;99.90;;;;;;5020752;28;20320;-48
2022/09/09 10:49:34;;;;;;;0.90;0.50;;;19.00;99.90;;;;;;5024852;28;20213;-49
2022/09/09 10:52:08;;;;;;;0.90;0.33;;;18.90;99.90;;;;;;5021153;28;20294;-49
2022/09/09 10:54:53;;;;;;;1.50;0.47;;;18.90;99.90;;;;;;5019345;28;20210;-48
2022/09/09 10:57:31;;;;;;;0.50;0.50;;;18.90;99.90;;;;;;5022551;28;20301;-49
2022/09/09 11:00:05;;;;;;;0.83;0.53;;;18.80;99.90;;;;;;5026398;28;20199;-50
2022/09/09 11:02:34;;;;;;;1.23;0.60;;;18.90;99.90;;;;;;5020954;28;20203;-48
2022/09/09 11:05:05;;;;;;;0.50;0.50;;;19.00;99.90;;;;;;5020861;28;20203;-48
2022/09/09 11:07:40;;;;;;;0.80;0.60;;;19.20;99.90;;;;;;5019742;28;20242;-48
2022/09/09 11:10:17;;;;;;;0.30;0.30;;;19.70;99.90;;;;;;5026244;28;20730;-48
2022/09/09 11:12:50;;;;;;;0.97;0.47;;;20.00;99.90;;;;;;5029904;28;20264;-49
2022/09/09 11:15:26;;;;;;;0.70;0.70;;;20.00;99.90;;;;;;5027582;28;20206;-48
2022/09/09 11:17:57;;;;;;;0.50;0.50;;;20.30;99.90;;;;;;5023488;28;20295;-49
2022/09/09 11:20:28;;;;;;;1.77;0.63;;;20.30;99.90;;;;;;5030515;28;20286;-49
2022/09/09 11:23:03;;;;;;;0.40;0.40;;;20.20;99.90;;;;;;5024451;28;20638;-49
2022/09/09 11:25:34;;;;;;;0.63;0.60;;;20.40;99.90;;;;;;5023230;28;20202;-50
2022/09/09 11:28:22;;;;;;;1.00;0.60;;;20.60;99.90;;;;;;5028573;28;20222;-48
2022/09/09 11:31:08;;;;;;;1.23;0.50;;;20.80;99.90;;;;;;5021939;28;20210;-49
2022/09/09 11:33:52;;;;;;;0.50;0.47;;;21.00;99.90;;;;;;5022565;28;20209;-49
2022/09/09 11:36:56;;;;;;;1.07;0.57;;;20.60;99.90;;;;;;5022137;28;20286;-48
2022/09/09 11:39:59;;;;;;;0.90;0.90;;;20.60;99.90;;;;;;5023925;28;20662;-49
2022/09/09 11:42:27;;;;;;;1.67;0.40;;;20.70;99.90;;;;;;5022703;28;20201;-49
2022/09/09 11:44:54;;;;;;;1.57;0.40;;;20.60;99.90;;;;;;5029014;28;20208;-48
2022/09/09 11:47:29;;;;;;;3.13;1.50;;;20.60;99.90;;;;;;5026385;28;20573;-49
2022/09/09 11:49:56;;;;;;;1.50;0.50;;;20.40;99.90;;;;;;5020722;28;20198;-49
2022/09/09 11:52:37;;;;;;;1.23;0.50;;;19.90;99.90;;;;;;5030901;28;20257;-49
2022/09/09 11:55:11;;;;;;;0.97;0.30;;;19.70;99.90;;;;;;5031206;28;20289;-48
2022/09/09 11:57:39;;;;;;;4.50;0.40;;;19.30;99.90;;;;;;5026198;28;20223;-48
2022/09/09 12:00:09;;;;;;;0.40;0.30;;;19.10;99.90;;;;;;5029629;28;20717;-48
2022/09/09 12:02:37;;;;;;;0.30;0.30;;;19.20;99.90;;;;;;5031831;28;20234;-49
2022/09/09 12:05:09;;;;;;;0.83;0.53;;;19.20;99.90;;;;;;5022055;28;20209;-48
2022/09/09 12:07:40;;;;;;;0.87;0.33;;;19.10;99.90;;;;;;5022863;28;20222;-48
2022/09/09 12:10:23;;;;;;;0.30;0.30;;;19.00;99.90;;;;;;5028242;28;20211;-48
2022/09/09 12:12:53;;;;;;;0.40;0.30;;;19.10;99.90;;;;;;5031118;28;20198;-49
2022/09/09 12:15:28;;;;;;;0.93;0.43;;;19.10;99.90;;;;;;5025646;28;20282;-48
2022/09/09 12:17:58;;;;;;;1.63;0.40;;;19.20;99.90;;;;;;5026357;28;20251;-49
2022/09/09 12:20:34;;;;;;;0.50;0.50;;;19.30;99.90;;;;;;5022053;28;20213;-49
2022/09/09 12:23:26;;;;;;;1.20;0.50;;;19.50;99.90;;;;;;5026109;28;20356;-48
2022/09/09 12:26:03;;;;;;;0.60;0.60;;;19.60;99.90;;;;;;5025301;28;20226;-48
2022/09/09 12:28:48;;;;;;;0.90;0.90;;;19.80;99.90;;;;;;5027673;28;20284;-49
2022/09/09 12:31:21;;;;;;;1.97;1.57;;;20.00;99.90;;;;;;5022340;28;20695;-49
2022/09/09 12:33:52;;;;;;;1.43;1.00;;;20.20;99.90;;;;;;5020191;28;20684;-50
2022/09/09 12:36:22;;;;;;;0.73;0.60;;;20.40;99.90;;;;;;5025766;28;20202;-49
2022/09/09 12:38:51;;;;;;;1.80;0.60;;;20.50;99.90;;;;;;5025936;28;20669;-49
2022/09/09 12:41:23;;;;;;;0.37;0.37;;;20.70;99.90;;;;;;5026739;28;20754;-48
2022/09/09 12:43:50;;;;;;;1.07;0.60;;;20.80;99.90;;;;;;5021940;28;20261;-50
2022/09/09 12:46:26;;;;;;;2.53;0.53;;;20.60;99.90;;;;;;5023044;28;20306;-49
2022/09/09 12:48:55;;;;;;;0.40;0.40;;;20.60;99.90;;;;;;5024158;28;20266;-49
2022/09/09 12:51:26;;;;;;;0.30;0.30;;;20.70;99.90;;;;;;5022133;28;20294;-51
2022/09/09 12:53:54;;;;;;;1.27;0.60;;;20.70;99.90;;;;;;5028523;28;20312;-49
2022/09/09 12:56:23;;;;;;;2.20;0.60;;;20.60;99.90;;;;;;5020640;28;20686;-50
2022/09/09 12:58:52;;;;;;;0.67;0.40;;;20.60;99.90;;;;;;5023495;28;20610;-49
2022/09/09 13:01:23;;;;;;;0.50;0.50;;;20.80;99.90;;;;;;5023072;28;20289;-50
2022/09/09 13:03:50;;;;;;;0.30;0.30;;;20.90;99.90;;;;;;5023052;28;20232;-49
2022/09/09 13:06:23;;;;;;;0.50;0.43;;;21.10;99.90;;;;;;5020107;28;20211;-50
2022/09/09 13:08:51;;;;;;;1.67;0.50;;;21.00;99.90;;;;;;5026405;28;20312;-50
2022/09/09 13:11:22;;;;;;;0.40;0.40;;;20.90;99.90;;;;;;5026153;28;20198;-50
2022/09/09 13:13:53;;;;;;;2.20;0.73;;;20.80;99.90;;;;;;5022503;28;20199;-49